Time;durP1;ratioP1;P1;durP2;ratioP2;P2;SDS_P1;SDS_P2;PMS_P1;PMS_P2;Temp;Humidity;BMP_temperature;BMP_pressure;BME280_temperature;BME280_humidity;BME280_pressure;Samples;Min_cycle;Max_cycle;Signal;HPM_P1;HPM_P2
2021/12/02 00:01:23;;;;;;;4.60;1.17;;;6.70;99.90;;;;;;5045955;28;20795;-74
2021/12/02 00:03:49;;;;;;;5.23;1.20;;;6.70;99.90;;;;;;5030735;28;20223;-73
2021/12/02 00:06:18;;;;;;;5.47;1.30;;;6.70;99.90;;;;;;5028582;28;20188;-73
2021/12/02 00:08:45;;;;;;;5.17;1.17;;;6.70;99.90;;;;;;5008419;28;20176;-71
2021/12/02 00:11:11;;;;;;;2.10;0.70;;;6.70;99.90;;;;;;5010602;28;20304;-72
2021/12/02 00:21:17;;;;;;;5.30;1.07;;;6.60;99.90;;;;;;4994386;28;20236;-72
2021/12/02 00:24:04;;;;;;;2.43;0.83;;;6.60;99.90;;;;;;4993020;28;20640;-72
2021/12/02 00:26:31;;;;;;;2.03;0.87;;;6.60;99.90;;;;;;5007606;28;20217;-74
2021/12/02 00:28:59;;;;;;;4.80;0.97;;;6.50;99.90;;;;;;4991878;28;20219;-72
2021/12/02 00:31:31;;;;;;;3.90;0.87;;;6.50;99.90;;;;;;5006985;28;20224;-70
2021/12/02 00:34:00;;;;;;;5.80;1.30;;;6.50;99.90;;;;;;5029825;28;20334;-72
2021/12/02 00:36:28;;;;;;;3.03;0.70;;;6.50;99.90;;;;;;5029516;28;20920;-71
2021/12/02 00:38:54;;;;;;;2.63;0.70;;;6.50;99.90;;;;;;5028652;28;20176;-72
2021/12/02 00:41:26;;;;;;;4.67;1.00;;;6.50;99.90;;;;;;5029843;28;20862;-72
2021/12/02 00:43:55;;;;;;;2.40;0.80;;;6.50;99.90;;;;;;5029804;28;20705;-73
2021/12/02 00:46:24;;;;;;;2.53;1.00;;;6.50;99.90;;;;;;5029758;28;20290;-74
2021/12/02 00:48:50;;;;;;;3.70;1.50;;;6.50;99.90;;;;;;5028249;28;20208;-72
2021/12/02 00:51:17;;;;;;;3.77;1.47;;;6.30;99.90;;;;;;5026735;28;20246;-72
2021/12/02 00:53:51;;;;;;;7.20;1.87;;;6.00;99.90;;;;;;5030817;28;20271;-71
2021/12/02 00:56:20;;;;;;;1.60;0.80;;;5.70;99.90;;;;;;4993630;28;20212;-71
2021/12/02 00:58:46;;;;;;;2.77;1.20;;;5.50;99.90;;;;;;5016599;28;20201;-74
2021/12/02 01:01:13;;;;;;;1.10;0.67;;;5.30;99.90;;;;;;5019423;28;20217;-73
2021/12/02 01:03:39;;;;;;;1.80;0.50;;;5.20;99.90;;;;;;5030666;28;20231;-72
2021/12/02 01:06:06;;;;;;;1.47;0.87;;;5.00;99.90;;;;;;5032339;28;20188;-72
2021/12/02 01:08:33;;;;;;;1.87;0.50;;;4.90;99.90;;;;;;5032627;28;20231;-71
2021/12/02 01:10:59;;;;;;;1.83;0.50;;;4.70;99.90;;;;;;5033129;28;20242;-71
2021/12/02 01:13:25;;;;;;;0.87;0.40;;;4.70;99.90;;;;;;5031740;28;20655;-72
2021/12/02 01:15:51;;;;;;;0.93;0.50;;;4.70;99.90;;;;;;5033025;28;20289;-74
2021/12/02 01:18:16;;;;;;;1.07;0.30;;;4.70;99.90;;;;;;5032522;28;20217;-71
2021/12/02 01:20:45;;;;;;;0.83;0.33;;;4.70;99.90;;;;;;5030075;28;20188;-72
2021/12/02 01:23:11;;;;;;;1.20;0.40;;;4.70;99.90;;;;;;5023812;28;20299;-71
2021/12/02 01:25:38;;;;;;;5.07;0.40;;;4.70;99.90;;;;;;5021293;28;20220;-71
2021/12/02 01:28:04;;;;;;;0.60;0.30;;;4.70;99.90;;;;;;5032376;28;20290;-72
2021/12/02 01:30:31;;;;;;;0.20;0.20;;;4.70;99.90;;;;;;5032342;28;20291;-74
2021/12/02 01:33:03;;;;;;;0.33;0.20;;;4.60;99.90;;;;;;5033372;28;20188;-71
2021/12/02 01:35:29;;;;;;;0.70;0.30;;;4.60;99.90;;;;;;5032569;28;20326;-71
2021/12/02 01:41:16;;;;;;;0.50;0.40;;;4.60;99.90;;;;;;5032611;28;20230;-74
2021/12/02 01:43:54;;;;;;;0.50;0.30;;;4.60;99.90;;;;;;5032427;28;20224;-71
2021/12/02 01:46:23;;;;;;;1.70;0.40;;;4.70;99.90;;;;;;5032205;28;20683;-71
2021/12/02 01:49:01;;;;;;;1.33;0.20;;;4.70;99.90;;;;;;5032273;28;20570;-74
2021/12/02 01:51:27;;;;;;;1.93;0.40;;;4.70;99.90;;;;;;5030354;28;20183;-71
2021/12/02 01:54:02;;;;;;;0.50;0.30;;;4.70;99.90;;;;;;5032679;28;20180;-72
2021/12/02 01:56:31;;;;;;;1.60;0.30;;;4.80;99.90;;;;;;5032076;28;20265;-72
2021/12/02 01:59:05;;;;;;;0.53;0.30;;;4.70;99.90;;;;;;5029886;28;20215;-73
2021/12/02 02:01:35;;;;;;;1.97;0.40;;;4.70;99.90;;;;;;5029182;28;20707;-71
2021/12/02 02:04:01;;;;;;;1.30;0.40;;;4.70;99.90;;;;;;5029409;28;20261;-73
2021/12/02 02:07:05;;;;;;;3.10;0.80;;;4.70;99.90;;;;;;5030355;28;20203;-72
2021/12/02 02:09:33;;;;;;;0.67;0.20;;;4.80;99.90;;;;;;4953974;28;20212;-70
2021/12/02 02:12:02;;;;;;;1.03;0.47;;;4.80;99.90;;;;;;5016578;28;20216;-70
2021/12/02 02:14:28;;;;;;;0.60;0.37;;;4.80;99.90;;;;;;5032254;28;20585;-71
2021/12/02 02:16:55;;;;;;;1.80;0.63;;;4.80;99.90;;;;;;5031749;28;20205;-71
2021/12/02 02:19:21;;;;;;;1.47;0.40;;;4.70;99.90;;;;;;5012237;28;20216;-72
2021/12/02 02:21:47;;;;;;;1.20;0.40;;;4.70;99.90;;;;;;5030884;28;20901;-72
2021/12/02 02:24:15;;;;;;;0.37;0.20;;;4.70;99.90;;;;;;5032787;28;20172;-72
2021/12/02 02:26:42;;;;;;;0.57;0.30;;;4.70;99.90;;;;;;5032976;28;21420;-72
2021/12/02 02:29:11;;;;;;;0.80;0.50;;;4.70;99.90;;;;;;5031454;28;20216;-72
2021/12/02 02:31:39;;;;;;;1.20;0.50;;;4.60;99.90;;;;;;5031419;28;20215;-73
2021/12/02 02:34:05;;;;;;;2.37;0.40;;;4.60;99.90;;;;;;5019720;28;20205;-72
2021/12/02 02:36:33;;;;;;;2.00;0.70;;;4.50;99.90;;;;;;5027314;28;20235;-72
2021/12/02 02:39:00;;;;;;;1.40;0.33;;;4.50;99.90;;;;;;5030257;28;20182;-73
2021/12/02 02:41:34;;;;;;;7.13;0.93;;;4.50;99.90;;;;;;5030070;28;20219;-71
2021/12/02 02:44:00;;;;;;;3.57;0.60;;;4.40;99.90;;;;;;5015261;28;20218;-72
2021/12/02 02:46:34;;;;;;;2.97;0.70;;;4.40;99.90;;;;;;5031102;28;20307;-73
2021/12/02 02:49:03;;;;;;;1.17;0.50;;;4.40;99.90;;;;;;5029683;28;20643;-71
2021/12/02 02:51:31;;;;;;;2.83;0.60;;;4.40;99.90;;;;;;5028409;28;20212;-71
2021/12/02 02:54:00;;;;;;;2.20;0.40;;;4.50;99.90;;;;;;5049192;22;20421;-74
2021/12/02 02:56:29;;;;;;;2.63;0.67;;;4.50;99.90;;;;;;5068348;28;20248;-74
2021/12/02 03:01:36;;;;;;;1.97;0.90;;;4.50;99.90;;;;;;5071780;28;20206;-74
2021/12/02 03:04:12;;;;;;;4.00;0.70;;;4.50;99.90;;;;;;5071677;28;20237;-74
2021/12/02 03:12:02;;;;;;;4.57;0.57;;;4.60;99.90;;;;;;5058497;28;20236;-74
2021/12/02 03:14:46;;;;;;;4.73;1.00;;;4.60;99.90;;;;;;5071441;28;20211;-74
2021/12/02 03:17:12;;;;;;;2.37;0.60;;;4.60;99.90;;;;;;5069609;28;20210;-73
2021/12/02 03:19:43;;;;;;;1.00;0.60;;;4.60;99.90;;;;;;5066416;28;20265;-74
2021/12/02 03:22:11;;;;;;;2.70;0.87;;;4.50;99.90;;;;;;5071360;28;20219;-74
2021/12/02 03:24:36;;;;;;;2.47;0.70;;;4.40;99.90;;;;;;5069778;28;20211;-74
2021/12/02 03:27:02;;;;;;;1.93;0.60;;;4.40;99.90;;;;;;5071724;28;20602;-74
2021/12/02 03:29:27;;;;;;;1.90;0.70;;;4.40;99.90;;;;;;5066182;28;20218;-74
2021/12/02 03:31:53;;;;;;;4.03;0.80;;;4.40;99.90;;;;;;5041853;28;20215;-74
2021/12/02 03:34:19;;;;;;;1.70;0.60;;;4.40;99.90;;;;;;5051162;28;20207;-74
2021/12/02 03:36:44;;;;;;;4.20;0.70;;;4.40;99.90;;;;;;5051006;28;20225;-73
2021/12/02 03:39:11;;;;;;;1.33;0.60;;;4.40;99.90;;;;;;5050700;28;20270;-72
2021/12/02 03:41:39;;;;;;;2.60;0.70;;;4.40;99.90;;;;;;5051194;28;20725;-73
2021/12/02 03:44:05;;;;;;;1.77;0.73;;;4.40;99.90;;;;;;5049565;28;20215;-74
2021/12/02 03:46:31;;;;;;;2.57;0.70;;;4.40;99.90;;;;;;5050766;28;20566;-73
2021/12/02 03:48:57;;;;;;;1.70;0.77;;;4.40;99.90;;;;;;5050545;28;20212;-74
2021/12/02 03:51:23;;;;;;;3.80;0.80;;;4.40;99.90;;;;;;5050732;28;20186;-72
2021/12/02 03:53:49;;;;;;;2.93;0.63;;;4.40;99.90;;;;;;5049751;28;20188;-73
2021/12/02 03:56:15;;;;;;;2.73;0.50;;;4.40;99.90;;;;;;5050858;28;20238;-73
2021/12/02 03:58:43;;;;;;;2.27;0.60;;;4.30;99.90;;;;;;5050156;28;20250;-73
2021/12/02 04:01:10;;;;;;;3.23;0.93;;;4.30;99.90;;;;;;5050322;28;20221;-73
2021/12/02 04:03:36;;;;;;;1.63;0.70;;;4.30;99.90;;;;;;5049563;28;20691;-73
2021/12/02 04:06:01;;;;;;;2.60;0.67;;;4.40;99.90;;;;;;5050309;28;20224;-74
2021/12/02 04:08:45;;;;;;;2.53;0.77;;;4.40;99.90;;;;;;5047975;28;20215;-73
2021/12/02 04:16:32;;;;;;;2.60;0.73;;;4.30;99.90;;;;;;5049838;28;20251;-73
2021/12/02 04:18:57;;;;;;;2.67;0.60;;;4.20;99.90;;;;;;5049376;28;20214;-73
2021/12/02 04:21:23;;;;;;;1.47;0.77;;;4.20;99.90;;;;;;5049493;28;20189;-73
2021/12/02 04:23:49;;;;;;;1.03;0.40;;;4.20;99.90;;;;;;5050053;28;20196;-73
2021/12/02 04:26:14;;;;;;;1.20;0.60;;;4.20;99.90;;;;;;5049557;28;20207;-72
2021/12/02 04:28:40;;;;;;;2.50;0.50;;;4.20;99.90;;;;;;5052758;28;20229;-74
2021/12/02 04:31:06;;;;;;;1.63;0.47;;;4.10;99.90;;;;;;5052364;28;20253;-72
2021/12/02 04:33:32;;;;;;;1.97;0.60;;;4.10;99.90;;;;;;5053374;28;20703;-73
2021/12/02 04:35:59;;;;;;;2.47;0.53;;;4.10;99.90;;;;;;5052748;28;20236;-73
2021/12/02 04:38:25;;;;;;;1.93;0.47;;;4.10;99.90;;;;;;5053781;28;20218;-73
2021/12/02 04:40:51;;;;;;;6.40;0.80;;;4.10;99.90;;;;;;5054151;28;20211;-73
2021/12/02 04:43:16;;;;;;;1.90;0.80;;;4.10;99.90;;;;;;5052912;28;20271;-74
2021/12/02 04:45:42;;;;;;;3.80;0.60;;;4.10;99.90;;;;;;5053773;28;20770;-74
2021/12/02 04:48:08;;;;;;;2.27;0.80;;;4.00;99.90;;;;;;5054267;28;20179;-73
2021/12/02 04:50:34;;;;;;;5.37;0.73;;;4.00;99.90;;;;;;5052667;28;20211;-73
2021/12/02 04:52:59;;;;;;;1.37;0.60;;;4.00;99.90;;;;;;5053910;28;20210;-73
2021/12/02 04:55:25;;;;;;;4.50;1.03;;;4.00;99.90;;;;;;5053644;28;20219;-74
2021/12/02 04:57:50;;;;;;;0.97;0.57;;;4.00;99.90;;;;;;5052157;28;20209;-73
2021/12/02 05:00:17;;;;;;;0.60;0.50;;;3.90;99.90;;;;;;5054104;28;20190;-73
2021/12/02 05:02:44;;;;;;;2.33;0.60;;;3.90;99.90;;;;;;5053859;28;20286;-73
2021/12/02 05:05:09;;;;;;;1.93;0.57;;;3.90;99.90;;;;;;5052322;28;20280;-73
2021/12/02 05:07:35;;;;;;;0.93;0.50;;;3.90;99.90;;;;;;5052177;28;20204;-73
2021/12/02 05:10:02;;;;;;;2.87;0.60;;;3.90;99.90;;;;;;5052125;28;20199;-73
2021/12/02 05:12:28;;;;;;;5.20;0.80;;;3.90;99.90;;;;;;5053692;28;20270;-74
2021/12/02 05:14:53;;;;;;;2.33;0.63;;;3.80;99.90;;;;;;5053184;28;20198;-74
2021/12/02 05:17:19;;;;;;;1.80;0.57;;;3.80;99.90;;;;;;5054274;28;20206;-73
2021/12/02 05:19:45;;;;;;;2.50;0.60;;;3.80;99.90;;;;;;5052049;28;20198;-73
2021/12/02 05:22:11;;;;;;;1.37;0.70;;;3.80;99.90;;;;;;5053839;28;20218;-73
2021/12/02 05:24:37;;;;;;;3.67;0.70;;;3.70;99.90;;;;;;5051910;28;20260;-74
2021/12/02 05:27:03;;;;;;;2.30;0.80;;;3.70;99.90;;;;;;5053225;28;20564;-73
2021/12/02 05:29:29;;;;;;;2.70;0.63;;;3.70;99.90;;;;;;5052889;28;20576;-73
2021/12/02 05:31:54;;;;;;;1.27;0.50;;;3.70;99.90;;;;;;5052292;28;20209;-73
2021/12/02 05:34:19;;;;;;;1.30;0.50;;;3.60;99.90;;;;;;5051652;28;20764;-73
2021/12/02 05:36:45;;;;;;;2.73;0.50;;;3.60;99.90;;;;;;5051752;28;20210;-73
2021/12/02 05:39:11;;;;;;;1.70;0.70;;;3.60;99.90;;;;;;5051722;28;20229;-73
2021/12/02 05:41:36;;;;;;;3.07;0.70;;;3.60;99.90;;;;;;5061572;28;20181;-73
2021/12/02 05:44:02;;;;;;;3.40;0.90;;;3.60;99.90;;;;;;5071527;28;20215;-73
2021/12/02 05:46:28;;;;;;;0.80;0.50;;;3.60;99.90;;;;;;5072895;28;20214;-73
2021/12/02 05:48:53;;;;;;;2.07;0.60;;;3.60;99.90;;;;;;5071456;28;20217;-73
2021/12/02 05:51:19;;;;;;;3.10;0.73;;;3.60;99.90;;;;;;5072918;28;20183;-73
2021/12/02 05:53:45;;;;;;;1.83;0.70;;;3.60;99.90;;;;;;5071628;28;20194;-73
2021/12/02 05:56:10;;;;;;;3.10;0.90;;;3.60;99.90;;;;;;5072826;28;20213;-73
2021/12/02 05:58:36;;;;;;;2.47;1.17;;;3.60;99.90;;;;;;5070882;28;20205;-73
2021/12/02 06:01:02;;;;;;;0.83;0.50;;;3.70;99.90;;;;;;5072785;28;20240;-74
2021/12/02 06:03:27;;;;;;;5.67;0.80;;;3.70;99.90;;;;;;5072628;28;20235;-73
2021/12/02 06:05:53;;;;;;;1.87;0.53;;;3.60;99.90;;;;;;5072979;28;20202;-74
2021/12/02 06:08:18;;;;;;;2.83;0.50;;;3.70;99.90;;;;;;5070947;28;20686;-73
2021/12/02 06:10:44;;;;;;;3.07;0.70;;;3.70;99.90;;;;;;5056347;28;20207;-74
2021/12/02 06:13:10;;;;;;;2.73;0.90;;;3.70;99.90;;;;;;5073184;28;20274;-74
2021/12/02 06:15:35;;;;;;;2.33;0.50;;;3.70;99.90;;;;;;5073101;28;20218;-74
2021/12/02 06:18:01;;;;;;;4.40;0.90;;;3.70;99.90;;;;;;5072182;28;20177;-74
2021/12/02 06:20:26;;;;;;;1.43;0.50;;;3.70;99.90;;;;;;5072192;28;20207;-74
2021/12/02 06:22:52;;;;;;;1.87;0.87;;;3.70;99.90;;;;;;5070735;28;20638;-73
2021/12/02 06:25:44;;;;;;;2.93;0.57;;;3.70;99.90;;;;;;5072179;28;20210;-73
2021/12/02 06:28:05;;;;;;;6.37;1.00;;;3.70;99.90;;;;;;5071899;28;20201;-74
2021/12/02 06:30:31;;;;;;;1.20;0.70;;;3.70;99.90;;;;;;5070487;28;20658;-74
2021/12/02 06:32:57;;;;;;;2.57;0.73;;;3.70;99.90;;;;;;5070993;28;20188;-74
2021/12/02 06:35:22;;;;;;;2.27;0.53;;;3.60;99.90;;;;;;5073287;28;20226;-74
2021/12/02 06:37:48;;;;;;;4.20;0.70;;;3.60;99.90;;;;;;5072762;28;20237;-73
2021/12/02 06:40:14;;;;;;;2.53;0.80;;;3.60;99.90;;;;;;5057519;28;20222;-74
2021/12/02 06:42:43;;;;;;;2.77;0.80;;;3.60;99.90;;;;;;5070342;28;20282;-73
2021/12/02 06:45:10;;;;;;;1.93;0.70;;;3.60;99.90;;;;;;5070406;28;20208;-73
2021/12/02 06:47:41;;;;;;;2.37;0.80;;;3.60;99.90;;;;;;5072107;28;20179;-73
2021/12/02 06:50:16;;;;;;;1.60;0.90;;;3.60;99.90;;;;;;5070265;28;20217;-72
2021/12/02 06:52:42;;;;;;;3.53;0.60;;;3.60;99.90;;;;;;5070136;28;20213;-73
2021/12/02 06:55:09;;;;;;;3.97;0.80;;;3.50;99.90;;;;;;5071339;28;20231;-73
2021/12/02 06:57:34;;;;;;;2.83;0.80;;;3.50;99.90;;;;;;5071231;28;20209;-73
2021/12/02 07:00:04;;;;;;;3.23;0.80;;;3.50;99.90;;;;;;5070327;28;20276;-73
2021/12/02 07:02:30;;;;;;;2.20;0.73;;;3.40;99.90;;;;;;5069947;28;20741;-73
2021/12/02 07:04:57;;;;;;;1.80;1.03;;;3.40;99.90;;;;;;5071318;28;20343;-74
2021/12/02 07:07:23;;;;;;;2.83;0.80;;;3.40;99.90;;;;;;5071037;28;20206;-74
2021/12/02 07:09:49;;;;;;;2.33;0.70;;;3.30;99.90;;;;;;5063565;28;20250;-73
2021/12/02 07:12:18;;;;;;;4.67;0.87;;;3.30;99.90;;;;;;5051478;28;20612;-73
2021/12/02 07:14:46;;;;;;;2.37;0.90;;;3.30;99.90;;;;;;5069991;28;20192;-74
2021/12/02 07:17:12;;;;;;;4.50;1.00;;;3.40;99.90;;;;;;5071276;28;20207;-73
2021/12/02 07:19:40;;;;;;;1.83;0.87;;;3.40;99.90;;;;;;5070744;28;20215;-74
2021/12/02 07:22:05;;;;;;;3.97;1.10;;;3.40;99.90;;;;;;5070903;28;20239;-74
2021/12/02 07:24:31;;;;;;;2.33;0.80;;;3.50;99.90;;;;;;5070593;28;20689;-74
2021/12/02 07:26:57;;;;;;;4.00;0.80;;;3.50;99.90;;;;;;5069799;28;20165;-74
2021/12/02 07:29:22;;;;;;;2.63;0.70;;;3.50;99.90;;;;;;5070432;28;20206;-73
2021/12/02 07:31:50;;;;;;;1.97;0.90;;;3.50;99.90;;;;;;5070621;28;20199;-73
2021/12/02 07:34:17;;;;;;;2.83;0.60;;;3.50;99.90;;;;;;5069711;28;20263;-73
2021/12/02 07:36:43;;;;;;;3.20;0.83;;;3.50;99.90;;;;;;5070709;28;20203;-73
2021/12/02 07:39:09;;;;;;;2.20;0.80;;;3.50;99.90;;;;;;5069351;28;20175;-73
2021/12/02 07:41:38;;;;;;;1.67;0.90;;;3.50;99.90;;;;;;5038827;28;20200;-73
2021/12/02 07:44:05;;;;;;;3.73;0.90;;;3.60;99.90;;;;;;5069853;28;20277;-74
2021/12/02 07:46:31;;;;;;;5.50;1.23;;;3.60;99.90;;;;;;5049822;28;20223;-73
2021/12/02 07:48:57;;;;;;;2.47;0.97;;;3.70;99.90;;;;;;5065934;28;20213;-73
2021/12/02 07:51:28;;;;;;;2.23;0.83;;;3.70;99.90;;;;;;5068637;28;20264;-73
2021/12/02 07:53:55;;;;;;;3.53;0.90;;;3.60;99.90;;;;;;5058315;28;20195;-73
2021/12/02 07:56:23;;;;;;;3.50;1.17;;;3.60;99.90;;;;;;5063326;28;20236;-73
2021/12/02 07:58:49;;;;;;;3.30;1.00;;;3.70;99.90;;;;;;5052324;28;20210;-73
2021/12/02 08:01:17;;;;;;;1.80;0.97;;;3.70;99.90;;;;;;5066366;28;20218;-74
2021/12/02 08:03:47;;;;;;;1.57;0.73;;;3.80;99.90;;;;;;5069347;28;20220;-74
2021/12/02 08:06:14;;;;;;;2.33;0.80;;;3.70;99.90;;;;;;5065836;28;20214;-73
2021/12/02 08:08:41;;;;;;;3.93;1.00;;;3.80;99.90;;;;;;5064547;28;20236;-73
2021/12/02 08:11:08;;;;;;;2.20;0.90;;;3.70;99.90;;;;;;5053644;28;20645;-73
2021/12/02 08:13:33;;;;;;;2.53;0.63;;;3.70;99.90;;;;;;5066391;28;20213;-73
2021/12/02 08:15:59;;;;;;;1.77;0.80;;;3.70;99.90;;;;;;5068741;28;20275;-73
2021/12/02 08:18:24;;;;;;;1.97;0.90;;;3.70;99.90;;;;;;5048283;28;20203;-74
2021/12/02 08:20:50;;;;;;;1.63;1.00;;;3.60;99.90;;;;;;5058973;28;20184;-74
2021/12/02 08:23:18;;;;;;;1.57;1.00;;;3.60;99.90;;;;;;5063843;28;20223;-74
2021/12/02 08:25:43;;;;;;;1.93;0.90;;;3.70;99.90;;;;;;5051359;28;20218;-73
2021/12/02 08:28:09;;;;;;;3.37;0.87;;;3.70;99.90;;;;;;5066045;28;20214;-73
2021/12/02 08:30:37;;;;;;;1.60;0.70;;;3.80;99.90;;;;;;5058383;28;20228;-75
2021/12/02 08:33:04;;;;;;;2.70;0.80;;;3.80;99.90;;;;;;5042368;28;20316;-74
2021/12/02 08:35:30;;;;;;;1.30;0.70;;;3.90;99.90;;;;;;5042384;28;20219;-74
2021/12/02 08:38:00;;;;;;;4.10;0.73;;;3.80;99.90;;;;;;5048227;28;20224;-74
2021/12/02 08:40:31;;;;;;;1.53;1.07;;;3.80;99.90;;;;;;5047075;28;20219;-73
2021/12/02 08:43:00;;;;;;;4.00;1.00;;;3.80;99.90;;;;;;5041919;28;20239;-73
2021/12/02 08:45:27;;;;;;;3.73;1.10;;;3.70;99.90;;;;;;5043013;28;20214;-73
2021/12/02 08:47:54;;;;;;;4.17;0.97;;;3.70;99.90;;;;;;5048941;28;20244;-73
2021/12/02 08:50:20;;;;;;;2.77;0.90;;;3.70;99.90;;;;;;5058995;28;21043;-73
2021/12/02 08:52:47;;;;;;;2.57;1.20;;;3.80;99.90;;;;;;5040282;28;20248;-73
2021/12/02 08:55:14;;;;;;;3.27;0.90;;;3.90;99.90;;;;;;5054593;28;20223;-73
2021/12/02 08:57:40;;;;;;;1.73;0.80;;;3.90;99.90;;;;;;5065096;28;20217;-73
2021/12/02 09:00:09;;;;;;;3.37;1.23;;;3.80;99.90;;;;;;5056470;28;20248;-74
2021/12/02 09:02:34;;;;;;;1.53;0.73;;;3.90;99.90;;;;;;5045177;28;20250;-73
2021/12/02 09:05:00;;;;;;;7.07;0.97;;;4.00;99.90;;;;;;5064163;28;20872;-73
2021/12/02 09:07:26;;;;;;;3.33;0.97;;;4.20;99.90;;;;;;5063718;28;20306;-73
2021/12/02 09:09:51;;;;;;;2.20;0.70;;;4.30;99.90;;;;;;5055657;28;20242;-74
2021/12/02 09:12:17;;;;;;;1.70;0.87;;;4.50;99.90;;;;;;5042511;28;20667;-74
2021/12/02 09:14:42;;;;;;;3.27;0.90;;;4.70;99.90;;;;;;5059771;28;20196;-74
2021/12/02 09:17:08;;;;;;;4.90;1.23;;;4.70;99.90;;;;;;5041265;28;20233;-75
2021/12/02 09:19:34;;;;;;;1.70;0.87;;;5.00;99.90;;;;;;5055455;28;20564;-76
2021/12/02 09:22:08;;;;;;;2.33;0.90;;;5.20;99.90;;;;;;5071861;28;20210;-75
2021/12/02 09:24:34;;;;;;;2.43;0.80;;;5.20;99.90;;;;;;5048557;28;20298;-75
2021/12/02 09:27:00;;;;;;;1.97;0.70;;;4.70;99.90;;;;;;5045355;28;20262;-75
2021/12/02 09:29:25;;;;;;;2.80;0.70;;;4.70;99.90;;;;;;5052848;28;20210;-78
2021/12/02 09:31:54;;;;;;;2.97;0.97;;;4.80;99.90;;;;;;5072922;28;20283;-74
2021/12/02 09:34:20;;;;;;;4.30;1.20;;;4.80;99.90;;;;;;5071498;28;20646;-74
2021/12/02 09:36:47;;;;;;;2.13;0.63;;;4.80;99.90;;;;;;5071338;28;20281;-74
2021/12/02 09:39:14;;;;;;;2.33;1.10;;;5.00;99.90;;;;;;5071442;28;20178;-74
2021/12/02 09:41:40;;;;;;;3.70;0.67;;;5.00;99.90;;;;;;5055899;28;20631;-78
2021/12/02 09:44:06;;;;;;;2.73;0.60;;;5.00;99.90;;;;;;5066125;28;20589;-76
2021/12/02 09:46:33;;;;;;;3.60;0.93;;;4.90;99.90;;;;;;5072416;28;20211;-76
2021/12/02 09:49:02;;;;;;;2.43;1.00;;;4.90;99.90;;;;;;5072246;28;20214;-75
2021/12/02 09:51:32;;;;;;;4.60;1.10;;;5.10;99.90;;;;;;5062028;28;20184;-73
2021/12/02 09:54:16;;;;;;;3.90;0.77;;;5.30;99.90;;;;;;5049370;28;20192;-73
2021/12/02 09:56:44;;;;;;;3.40;0.83;;;5.20;99.90;;;;;;5048270;28;20225;-73
2021/12/02 09:59:22;;;;;;;3.07;1.10;;;5.10;99.90;;;;;;5042514;28;20219;-73
2021/12/02 10:01:50;;;;;;;4.60;1.03;;;5.10;99.90;;;;;;5046037;28;20226;-73
2021/12/02 10:04:16;;;;;;;4.57;1.17;;;5.30;99.90;;;;;;5038564;28;20255;-73
2021/12/02 10:06:43;;;;;;;3.50;1.23;;;5.30;99.90;;;;;;5070077;28;20280;-75
2021/12/02 10:09:12;;;;;;;2.77;1.57;;;5.20;99.90;;;;;;5071800;28;20175;-75
2021/12/02 10:11:43;;;;;;;4.07;1.43;;;5.30;99.90;;;;;;5056689;28;20178;-77
2021/12/02 10:14:22;;;;;;;6.53;1.47;;;5.30;99.90;;;;;;5072215;28;20296;-76
2021/12/02 10:16:50;;;;;;;1.80;0.90;;;5.20;99.90;;;;;;5071028;28;20213;-74
2021/12/02 10:19:25;;;;;;;0.67;0.60;;;5.20;99.90;;;;;;5065564;28;20213;-75
2021/12/02 10:21:55;;;;;;;2.77;1.07;;;5.10;99.90;;;;;;5057129;28;20309;-75
2021/12/02 10:24:24;;;;;;;1.63;1.10;;;5.10;99.90;;;;;;5070469;28;20202;-76
2021/12/02 10:26:56;;;;;;;2.90;1.00;;;5.20;99.90;;;;;;5072176;28;20181;-76
2021/12/02 10:29:27;;;;;;;0.97;0.60;;;5.20;99.90;;;;;;5071579;28;20218;-76
2021/12/02 10:32:13;;;;;;;2.67;1.20;;;5.00;99.90;;;;;;5071145;28;20284;-77
2021/12/02 10:34:52;;;;;;;4.97;0.87;;;5.20;99.90;;;;;;5070229;28;20228;-75
2021/12/02 10:37:19;;;;;;;5.37;1.17;;;5.30;99.90;;;;;;5071824;28;20240;-74
2021/12/02 10:40:02;;;;;;;2.37;0.93;;;5.20;99.90;;;;;;5065023;28;20237;-75
2021/12/02 10:42:30;;;;;;;4.67;1.20;;;5.00;99.90;;;;;;5065125;28;20237;-75
2021/12/02 10:45:00;;;;;;;7.27;1.03;;;5.00;99.90;;;;;;5071738;28;20685;-79
2021/12/02 10:47:27;;;;;;;2.20;0.83;;;4.80;99.90;;;;;;5071824;28;20228;-77
2021/12/02 10:50:07;;;;;;;3.73;1.00;;;5.00;99.90;;;;;;5071152;28;20288;-73
2021/12/02 10:52:34;;;;;;;4.07;1.07;;;5.10;99.90;;;;;;5070131;28;20649;-73
2021/12/02 10:55:05;;;;;;;2.67;1.13;;;5.10;99.90;;;;;;5069983;28;20218;-73
2021/12/02 10:57:32;;;;;;;3.47;0.80;;;5.30;99.90;;;;;;5069775;28;20696;-75
2021/12/02 11:00:00;;;;;;;3.07;1.20;;;5.10;99.90;;;;;;5071314;28;20185;-74
2021/12/02 11:02:28;;;;;;;4.00;1.30;;;5.20;99.90;;;;;;5070906;28;20276;-73
2021/12/02 11:05:00;;;;;;;4.93;1.30;;;5.10;99.90;;;;;;5071506;28;20303;-77
2021/12/02 11:07:32;;;;;;;2.77;0.87;;;5.10;99.90;;;;;;5071525;28;20210;-75
2021/12/02 11:10:00;;;;;;;4.43;0.90;;;5.10;99.90;;;;;;5061989;28;20216;-76
2021/12/02 11:12:35;;;;;;;6.10;0.90;;;5.10;99.90;;;;;;5063906;28;20593;-78
2021/12/02 11:15:13;;;;;;;4.07;1.00;;;5.10;99.90;;;;;;5071661;28;20217;-78
2021/12/02 11:17:45;;;;;;;2.00;0.70;;;5.10;99.90;;;;;;5070993;28;20215;-79
2021/12/02 11:20:26;;;;;;;4.67;1.00;;;5.10;99.90;;;;;;5061616;28;20637;-80
2021/12/02 11:22:59;;;;;;;5.20;1.27;;;5.20;99.90;;;;;;5055571;28;20323;-75
2021/12/02 11:25:24;;;;;;;2.10;0.90;;;5.30;99.90;;;;;;5070168;28;20299;-78
2021/12/02 11:27:51;;;;;;;3.70;1.00;;;5.10;99.90;;;;;;5068844;28;20263;-77
2021/12/02 11:30:22;;;;;;;2.17;0.80;;;5.00;99.90;;;;;;5070168;28;20182;-75
2021/12/02 11:32:49;;;;;;;2.80;1.27;;;5.10;99.90;;;;;;5070736;28;20182;-75
2021/12/02 11:35:20;;;;;;;2.03;1.10;;;5.00;99.90;;;;;;5070617;28;20291;-76
2021/12/02 11:37:52;;;;;;;4.00;1.00;;;5.00;99.90;;;;;;5068472;28;20210;-79
2021/12/02 11:40:22;;;;;;;3.00;0.87;;;4.90;99.90;;;;;;5055360;28;20217;-76
2021/12/02 11:42:49;;;;;;;5.07;1.30;;;5.10;99.90;;;;;;5054573;28;20210;-76
2021/12/02 11:45:17;;;;;;;4.63;0.80;;;5.20;99.90;;;;;;5070198;28;20670;-74
2021/12/02 11:47:43;;;;;;;3.37;1.00;;;5.30;99.90;;;;;;5070512;28;20185;-73
2021/12/02 11:50:11;;;;;;;4.37;0.93;;;5.30;99.90;;;;;;5069096;28;20210;-75
2021/12/02 11:52:39;;;;;;;3.47;1.20;;;5.20;99.90;;;;;;5069086;28;20688;-79
2021/12/02 11:55:20;;;;;;;1.80;0.97;;;5.40;99.90;;;;;;5070471;28;20766;-77
2021/12/02 11:57:47;;;;;;;6.50;1.23;;;5.30;99.90;;;;;;5052923;28;20231;-76
2021/12/02 12:00:16;;;;;;;4.33;1.30;;;5.20;99.90;;;;;;5046298;28;20269;-77
2021/12/02 12:03:06;;;;;;;5.53;1.30;;;5.30;99.90;;;;;;5069082;28;20205;-78
2021/12/02 12:05:38;;;;;;;2.57;1.07;;;5.30;99.90;;;;;;5070981;28;20219;-75
2021/12/02 12:08:04;;;;;;;4.17;0.90;;;5.20;99.90;;;;;;5069661;28;20580;-78
2021/12/02 12:10:38;;;;;;;17.50;2.90;;;5.20;99.90;;;;;;5055458;28;20814;-77
2021/12/02 12:13:22;;;;;;;5.30;1.33;;;5.30;99.90;;;;;;5070858;28;20278;-76
2021/12/02 12:15:51;;;;;;;2.97;1.73;;;5.30;99.90;;;;;;5068872;28;20202;-78
2021/12/02 12:18:39;;;;;;;2.90;0.90;;;5.10;99.90;;;;;;5066419;28;20178;-81
2021/12/02 12:21:10;;;;;;;1.73;1.10;;;5.20;99.90;;;;;;5059077;28;20198;-75
2021/12/02 12:23:40;;;;;;;4.77;1.83;;;5.20;99.90;;;;;;5069760;28;20228;-74
2021/12/02 12:26:21;;;;;;;18.73;11.17;;;5.10;99.90;;;;;;5069998;28;20202;-74
2021/12/02 12:29:08;;;;;;;3.60;1.53;;;5.10;99.90;;;;;;5069651;28;20246;-76
2021/12/02 12:31:57;;;;;;;2.13;1.00;;;5.10;99.90;;;;;;5068621;28;20210;-76
2021/12/02 12:34:39;;;;;;;3.53;1.10;;;5.20;99.90;;;;;;5070173;28;20288;-74
2021/12/02 12:37:20;;;;;;;2.60;1.40;;;5.20;99.90;;;;;;5070586;28;20300;-77
2021/12/02 12:40:05;;;;;;;4.80;2.07;;;5.20;99.90;;;;;;5044977;28;20289;-76
2021/12/02 12:42:31;;;;;;;4.77;1.60;;;5.10;99.90;;;;;;5065264;28;20214;-76
2021/12/02 12:44:58;;;;;;;1.50;0.83;;;4.90;99.90;;;;;;5068992;28;20208;-79
2021/12/02 12:47:46;;;;;;;2.70;0.90;;;4.90;99.90;;;;;;5069712;28;20678;-78
2021/12/02 12:50:40;;;;;;;4.20;0.80;;;4.90;99.90;;;;;;5073791;28;20207;-82
2021/12/02 12:53:05;;;;;;;5.37;1.00;;;4.90;99.90;;;;;;5076840;28;20294;-74
2021/12/02 12:55:36;;;;;;;2.20;0.77;;;4.80;99.90;;;;;;5073385;28;20693;-75
2021/12/02 12:58:22;;;;;;;2.15;0.90;;;4.80;99.90;;;;;;5072427;28;20406;-72
2021/12/02 13:00:48;;;;;;;2.70;0.83;;;4.90;99.90;;;;;;5057101;28;20202;-75
2021/12/02 13:03:27;;;;;;;5.37;1.47;;;4.90;99.90;;;;;;5073286;28;20701;-75
2021/12/02 13:06:00;;;;;;;2.80;1.03;;;4.90;99.90;;;;;;5049379;28;20693;-73
2021/12/02 13:08:30;;;;;;;2.90;0.83;;;4.90;99.90;;;;;;5065611;28;20690;-74
2021/12/02 13:10:57;;;;;;;2.13;0.90;;;4.90;99.90;;;;;;5056973;28;20199;-76
2021/12/02 13:13:34;;;;;;;4.13;1.07;;;4.90;99.90;;;;;;5062577;28;20211;-76
2021/12/02 13:16:19;;;;;;;3.13;1.23;;;4.90;99.90;;;;;;5072194;28;20674;-76
2021/12/02 13:18:53;;;;;;;4.57;1.00;;;5.00;99.90;;;;;;5067775;28;20627;-77
2021/12/02 13:21:31;;;;;;;2.77;1.30;;;5.10;99.90;;;;;;5073180;28;20182;-75
2021/12/02 13:23:58;;;;;;;4.73;1.67;;;4.90;99.90;;;;;;5059981;28;20248;-75
2021/12/02 13:26:29;;;;;;;3.17;1.07;;;5.00;99.90;;;;;;5072609;28;20305;-74
2021/12/02 13:28:57;;;;;;;4.77;1.00;;;4.90;99.90;;;;;;5071140;28;20579;-75
2021/12/02 13:31:26;;;;;;;3.60;0.70;;;4.90;99.90;;;;;;5072659;28;20211;-76